sensor_id;sensor_type;location;lat;lon;timestamp;P1;durP1;ratioP1;P2;durP2;ratioP2
12383;SDS011;6256;63.808;20.336;2022-08-21T00:02:26;15.60;;;10.20;;
12383;SDS011;6256;63.808;20.336;2022-08-21T00:04:53;14.02;;;9.65;;
12383;SDS011;6256;63.808;20.336;2022-08-21T00:07:19;16.30;;;9.02;;
12383;SDS011;6256;63.808;20.336;2022-08-21T00:09:46;16.13;;;9.88;;
12383;SDS011;6256;63.808;20.336;2022-08-21T00:12:12;15.55;;;9.23;;
12383;SDS011;6256;63.808;20.336;2022-08-21T00:14:39;12.20;;;8.85;;
12383;SDS011;6256;63.808;20.336;2022-08-21T00:17:08;14.60;;;9.32;;
12383;SDS011;6256;63.808;20.336;2022-08-21T00:19:34;12.70;;;8.90;;
12383;SDS011;6256;63.808;20.336;2022-08-21T00:21:59;16.60;;;9.88;;
12383;SDS011;6256;63.808;20.336;2022-08-21T00:24:25;13.10;;;10.05;;
12383;SDS011;6256;63.808;20.336;2022-08-21T00:26:51;18.33;;;11.05;;
12383;SDS011;6256;63.808;20.336;2022-08-21T00:29:17;20.35;;;10.07;;
12383;SDS011;6256;63.808;20.336;2022-08-21T00:31:43;20.08;;;10.48;;
12383;SDS011;6256;63.808;20.336;2022-08-21T00:34:09;14.60;;;9.77;;
12383;SDS011;6256;63.808;20.336;2022-08-21T00:36:37;18.52;;;10.32;;
12383;SDS011;6256;63.808;20.336;2022-08-21T00:39:07;13.88;;;9.38;;
12383;SDS011;6256;63.808;20.336;2022-08-21T00:41:34;10.52;;;8.05;;
12383;SDS011;6256;63.808;20.336;2022-08-21T00:44:02;11.98;;;7.90;;
12383;SDS011;6256;63.808;20.336;2022-08-21T00:46:29;11.60;;;7.93;;
12383;SDS011;6256;63.808;20.336;2022-08-21T00:48:55;11.60;;;6.90;;
12383;SDS011;6256;63.808;20.336;2022-08-21T00:51:25;9.50;;;6.55;;
12383;SDS011;6256;63.808;20.336;2022-08-21T00:53:59;9.75;;;6.90;;
12383;SDS011;6256;63.808;20.336;2022-08-21T00:56:26;11.48;;;6.40;;
12383;SDS011;6256;63.808;20.336;2022-08-21T00:58:53;10.65;;;7.50;;
12383;SDS011;6256;63.808;20.336;2022-08-21T01:01:22;9.80;;;7.20;;
12383;SDS011;6256;63.808;20.336;2022-08-21T01:03:50;12.85;;;7.93;;
12383;SDS011;6256;63.808;20.336;2022-08-21T01:06:16;16.38;;;8.85;;
12383;SDS011;6256;63.808;20.336;2022-08-21T01:08:42;14.95;;;7.93;;
12383;SDS011;6256;63.808;20.336;2022-08-21T01:11:08;9.93;;;6.65;;
12383;SDS011;6256;63.808;20.336;2022-08-21T01:13:35;8.65;;;6.00;;
12383;SDS011;6256;63.808;20.336;2022-08-21T01:16:05;6.43;;;5.50;;
12383;SDS011;6256;63.808;20.336;2022-08-21T01:18:34;7.13;;;4.57;;
12383;SDS011;6256;63.808;20.336;2022-08-21T01:21:10;8.88;;;4.72;;
12383;SDS011;6256;63.808;20.336;2022-08-21T01:23:39;11.80;;;5.80;;
12383;SDS011;6256;63.808;20.336;2022-08-21T01:26:07;7.75;;;5.43;;
12383;SDS011;6256;63.808;20.336;2022-08-21T01:28:34;6.10;;;5.07;;
12383;SDS011;6256;63.808;20.336;2022-08-21T01:31:05;9.13;;;6.03;;
12383;SDS011;6256;63.808;20.336;2022-08-21T01:33:33;9.65;;;5.30;;
12383;SDS011;6256;63.808;20.336;2022-08-21T01:35:59;9.52;;;6.57;;
12383;SDS011;6256;63.808;20.336;2022-08-21T01:38:25;9.15;;;6.35;;
12383;SDS011;6256;63.808;20.336;2022-08-21T01:40:51;8.63;;;5.38;;
12383;SDS011;6256;63.808;20.336;2022-08-21T01:43:17;7.72;;;5.72;;
12383;SDS011;6256;63.808;20.336;2022-08-21T01:45:43;7.43;;;5.78;;
12383;SDS011;6256;63.808;20.336;2022-08-21T01:48:09;9.73;;;6.28;;
12383;SDS011;6256;63.808;20.336;2022-08-21T01:50:35;12.35;;;7.07;;
12383;SDS011;6256;63.808;20.336;2022-08-21T01:53:01;10.63;;;6.50;;
12383;SDS011;6256;63.808;20.336;2022-08-21T01:55:27;10.55;;;5.32;;
12383;SDS011;6256;63.808;20.336;2022-08-21T01:57:53;8.48;;;6.00;;
12383;SDS011;6256;63.808;20.336;2022-08-21T02:00:26;9.55;;;5.50;;
12383;SDS011;6256;63.808;20.336;2022-08-21T02:02:52;11.13;;;6.47;;
12383;SDS011;6256;63.808;20.336;2022-08-21T02:05:18;10.35;;;6.55;;
12383;SDS011;6256;63.808;20.336;2022-08-21T02:07:45;12.20;;;7.50;;
12383;SDS011;6256;63.808;20.336;2022-08-21T02:10:14;13.20;;;7.20;;
12383;SDS011;6256;63.808;20.336;2022-08-21T02:12:43;13.07;;;7.50;;
12383;SDS011;6256;63.808;20.336;2022-08-21T02:15:09;10.55;;;7.30;;
12383;SDS011;6256;63.808;20.336;2022-08-21T02:17:39;9.05;;;6.80;;
12383;SDS011;6256;63.808;20.336;2022-08-21T02:20:11;11.98;;;7.80;;
12383;SDS011;6256;63.808;20.336;2022-08-21T02:22:42;10.68;;;6.80;;
12383;SDS011;6256;63.808;20.336;2022-08-21T02:25:08;11.55;;;7.90;;
12383;SDS011;6256;63.808;20.336;2022-08-21T02:27:38;11.73;;;7.63;;
12383;SDS011;6256;63.808;20.336;2022-08-21T02:30:06;12.73;;;7.43;;
12383;SDS011;6256;63.808;20.336;2022-08-21T02:32:32;14.13;;;7.30;;
12383;SDS011;6256;63.808;20.336;2022-08-21T02:34:58;9.77;;;7.10;;
12383;SDS011;6256;63.808;20.336;2022-08-21T02:37:24;14.10;;;8.20;;
12383;SDS011;6256;63.808;20.336;2022-08-21T02:39:50;14.32;;;7.07;;
12383;SDS011;6256;63.808;20.336;2022-08-21T02:42:17;13.68;;;7.43;;
12383;SDS011;6256;63.808;20.336;2022-08-21T02:44:43;11.20;;;6.65;;
12383;SDS011;6256;63.808;20.336;2022-08-21T02:47:09;9.75;;;6.22;;
12383;SDS011;6256;63.808;20.336;2022-08-21T02:49:34;10.32;;;6.05;;
12383;SDS011;6256;63.808;20.336;2022-08-21T02:52:00;9.52;;;5.75;;
12383;SDS011;6256;63.808;20.336;2022-08-21T02:54:26;8.10;;;5.35;;
12383;SDS011;6256;63.808;20.336;2022-08-21T02:56:51;7.90;;;5.60;;
12383;SDS011;6256;63.808;20.336;2022-08-21T02:59:17;9.60;;;6.15;;
12383;SDS011;6256;63.808;20.336;2022-08-21T03:01:43;6.85;;;5.30;;
12383;SDS011;6256;63.808;20.336;2022-08-21T03:04:09;7.82;;;5.70;;
12383;SDS011;6256;63.808;20.336;2022-08-21T03:06:35;7.57;;;5.50;;
12383;SDS011;6256;63.808;20.336;2022-08-21T03:09:01;7.45;;;5.55;;
12383;SDS011;6256;63.808;20.336;2022-08-21T03:11:27;8.20;;;5.13;;
12383;SDS011;6256;63.808;20.336;2022-08-21T03:13:53;7.68;;;5.15;;
12383;SDS011;6256;63.808;20.336;2022-08-21T03:16:19;10.68;;;5.32;;
12383;SDS011;6256;63.808;20.336;2022-08-21T03:18:45;6.95;;;5.13;;
12383;SDS011;6256;63.808;20.336;2022-08-21T03:21:11;9.55;;;5.65;;
12383;SDS011;6256;63.808;20.336;2022-08-21T03:23:38;8.80;;;5.53;;
12383;SDS011;6256;63.808;20.336;2022-08-21T03:26:05;7.72;;;5.93;;
12383;SDS011;6256;63.808;20.336;2022-08-21T03:28:31;9.15;;;5.82;;
12383;SDS011;6256;63.808;20.336;2022-08-21T03:30:57;7.38;;;6.38;;
12383;SDS011;6256;63.808;20.336;2022-08-21T03:33:23;10.90;;;6.03;;
12383;SDS011;6256;63.808;20.336;2022-08-21T03:35:55;9.85;;;6.25;;
12383;SDS011;6256;63.808;20.336;2022-08-21T03:38:27;10.65;;;5.85;;
12383;SDS011;6256;63.808;20.336;2022-08-21T03:40:55;11.25;;;7.35;;
12383;SDS011;6256;63.808;20.336;2022-08-21T03:43:21;13.02;;;7.32;;
12383;SDS011;6256;63.808;20.336;2022-08-21T03:45:47;11.38;;;7.38;;
12383;SDS011;6256;63.808;20.336;2022-08-21T03:48:12;12.73;;;7.80;;
12383;SDS011;6256;63.808;20.336;2022-08-21T03:50:40;12.10;;;7.45;;
12383;SDS011;6256;63.808;20.336;2022-08-21T03:53:09;13.88;;;7.57;;
12383;SDS011;6256;63.808;20.336;2022-08-21T03:55:35;11.90;;;8.02;;
12383;SDS011;6256;63.808;20.336;2022-08-21T03:58:01;11.68;;;7.57;;
12383;SDS011;6256;63.808;20.336;2022-08-21T04:00:27;11.98;;;7.82;;
12383;SDS011;6256;63.808;20.336;2022-08-21T04:02:53;13.05;;;8.45;;
12383;SDS011;6256;63.808;20.336;2022-08-21T04:05:19;12.77;;;7.80;;
12383;SDS011;6256;63.808;20.336;2022-08-21T04:07:53;13.23;;;8.25;;
12383;SDS011;6256;63.808;20.336;2022-08-21T04:10:19;15.50;;;8.50;;
12383;SDS011;6256;63.808;20.336;2022-08-21T04:12:45;12.25;;;7.50;;
12383;SDS011;6256;63.808;20.336;2022-08-21T04:15:11;17.75;;;8.27;;
12383;SDS011;6256;63.808;20.336;2022-08-21T04:17:38;14.00;;;8.52;;
12383;SDS011;6256;63.808;20.336;2022-08-21T04:20:04;12.35;;;7.15;;
12383;SDS011;6256;63.808;20.336;2022-08-21T04:22:30;12.55;;;8.68;;
12383;SDS011;6256;63.808;20.336;2022-08-21T04:24:55;11.38;;;7.60;;
12383;SDS011;6256;63.808;20.336;2022-08-21T04:27:21;11.98;;;6.90;;
12383;SDS011;6256;63.808;20.336;2022-08-21T04:29:47;10.13;;;6.78;;
12383;SDS011;6256;63.808;20.336;2022-08-21T04:32:12;13.65;;;7.63;;
12383;SDS011;6256;63.808;20.336;2022-08-21T04:34:38;11.25;;;7.38;;
12383;SDS011;6256;63.808;20.336;2022-08-21T04:37:04;15.80;;;8.88;;
12383;SDS011;6256;63.808;20.336;2022-08-21T04:39:30;15.00;;;9.00;;
12383;SDS011;6256;63.808;20.336;2022-08-21T04:41:55;15.57;;;9.80;;
12383;SDS011;6256;63.808;20.336;2022-08-21T04:44:21;22.20;;;10.55;;
12383;SDS011;6256;63.808;20.336;2022-08-21T04:46:47;17.90;;;9.98;;
12383;SDS011;6256;63.808;20.336;2022-08-21T04:49:12;19.63;;;10.75;;
12383;SDS011;6256;63.808;20.336;2022-08-21T04:51:39;26.10;;;11.02;;
12383;SDS011;6256;63.808;20.336;2022-08-21T04:56:39;18.63;;;10.30;;
12383;SDS011;6256;63.808;20.336;2022-08-21T04:59:19;20.45;;;9.85;;
12383;SDS011;6256;63.808;20.336;2022-08-21T05:01:47;18.33;;;10.02;;
12383;SDS011;6256;63.808;20.336;2022-08-21T05:04:14;17.58;;;9.75;;
12383;SDS011;6256;63.808;20.336;2022-08-21T05:06:44;17.55;;;9.05;;
12383;SDS011;6256;63.808;20.336;2022-08-21T05:09:12;17.52;;;9.50;;
12383;SDS011;6256;63.808;20.336;2022-08-21T05:11:43;15.52;;;8.82;;
12383;SDS011;6256;63.808;20.336;2022-08-21T05:14:10;17.08;;;8.80;;
12383;SDS011;6256;63.808;20.336;2022-08-21T05:16:36;15.05;;;8.38;;
12383;SDS011;6256;63.808;20.336;2022-08-21T05:19:03;11.35;;;7.28;;
12383;SDS011;6256;63.808;20.336;2022-08-21T05:21:30;15.93;;;7.82;;
12383;SDS011;6256;63.808;20.336;2022-08-21T05:23:56;14.82;;;8.20;;
12383;SDS011;6256;63.808;20.336;2022-08-21T05:26:21;15.52;;;8.50;;
12383;SDS011;6256;63.808;20.336;2022-08-21T05:28:47;16.55;;;9.68;;
12383;SDS011;6256;63.808;20.336;2022-08-21T05:31:13;19.50;;;9.00;;
12383;SDS011;6256;63.808;20.336;2022-08-21T05:33:38;15.93;;;9.05;;
12383;SDS011;6256;63.808;20.336;2022-08-21T05:36:04;19.52;;;9.70;;
12383;SDS011;6256;63.808;20.336;2022-08-21T05:38:30;14.38;;;8.80;;
12383;SDS011;6256;63.808;20.336;2022-08-21T05:40:56;15.63;;;8.50;;
12383;SDS011;6256;63.808;20.336;2022-08-21T05:43:21;20.23;;;9.95;;
12383;SDS011;6256;63.808;20.336;2022-08-21T05:45:47;22.02;;;10.80;;
12383;SDS011;6256;63.808;20.336;2022-08-21T05:48:20;24.00;;;10.68;;
12383;SDS011;6256;63.808;20.336;2022-08-21T05:50:47;22.80;;;10.23;;
12383;SDS011;6256;63.808;20.336;2022-08-21T05:53:15;20.83;;;10.23;;
12383;SDS011;6256;63.808;20.336;2022-08-21T05:55:42;21.23;;;10.15;;
12383;SDS011;6256;63.808;20.336;2022-08-21T05:58:08;23.42;;;10.27;;
12383;SDS011;6256;63.808;20.336;2022-08-21T06:00:34;21.55;;;10.07;;
12383;SDS011;6256;63.808;20.336;2022-08-21T06:03:00;20.27;;;10.38;;
12383;SDS011;6256;63.808;20.336;2022-08-21T06:05:26;18.70;;;8.50;;
12383;SDS011;6256;63.808;20.336;2022-08-21T06:07:51;20.35;;;10.02;;
12383;SDS011;6256;63.808;20.336;2022-08-21T06:10:17;20.58;;;9.93;;
12383;SDS011;6256;63.808;20.336;2022-08-21T06:12:43;27.38;;;11.35;;
12383;SDS011;6256;63.808;20.336;2022-08-21T06:15:09;17.60;;;10.38;;
12383;SDS011;6256;63.808;20.336;2022-08-21T06:17:38;17.02;;;9.07;;
12383;SDS011;6256;63.808;20.336;2022-08-21T06:20:04;12.07;;;7.82;;
12383;SDS011;6256;63.808;20.336;2022-08-21T06:22:30;17.30;;;9.30;;
12383;SDS011;6256;63.808;20.336;2022-08-21T06:24:56;18.27;;;8.55;;
12383;SDS011;6256;63.808;20.336;2022-08-21T06:27:21;20.13;;;8.80;;
12383;SDS011;6256;63.808;20.336;2022-08-21T06:29:47;15.77;;;8.80;;
12383;SDS011;6256;63.808;20.336;2022-08-21T06:32:16;13.50;;;8.35;;
12383;SDS011;6256;63.808;20.336;2022-08-21T06:34:41;22.27;;;9.05;;
12383;SDS011;6256;63.808;20.336;2022-08-21T06:37:07;11.80;;;7.68;;
12383;SDS011;6256;63.808;20.336;2022-08-21T06:39:33;14.60;;;7.13;;
12383;SDS011;6256;63.808;20.336;2022-08-21T06:41:59;10.52;;;6.72;;
12383;SDS011;6256;63.808;20.336;2022-08-21T06:44:25;17.05;;;6.70;;
12383;SDS011;6256;63.808;20.336;2022-08-21T06:46:51;6.97;;;5.30;;
12383;SDS011;6256;63.808;20.336;2022-08-21T06:49:17;7.65;;;5.57;;
12383;SDS011;6256;63.808;20.336;2022-08-21T06:51:42;13.52;;;6.93;;
12383;SDS011;6256;63.808;20.336;2022-08-21T06:54:08;11.35;;;6.78;;
12383;SDS011;6256;63.808;20.336;2022-08-21T06:56:34;12.32;;;6.88;;
12383;SDS011;6256;63.808;20.336;2022-08-21T06:59:02;8.38;;;5.03;;
12383;SDS011;6256;63.808;20.336;2022-08-21T07:01:28;9.50;;;5.72;;
12383;SDS011;6256;63.808;20.336;2022-08-21T07:03:54;10.73;;;6.47;;
12383;SDS011;6256;63.808;20.336;2022-08-21T07:06:20;9.18;;;5.60;;
12383;SDS011;6256;63.808;20.336;2022-08-21T07:08:46;13.80;;;5.93;;
12383;SDS011;6256;63.808;20.336;2022-08-21T07:11:18;9.10;;;6.53;;
12383;SDS011;6256;63.808;20.336;2022-08-21T07:13:45;10.57;;;6.07;;
12383;SDS011;6256;63.808;20.336;2022-08-21T07:16:11;16.73;;;7.63;;
12383;SDS011;6256;63.808;20.336;2022-08-21T07:18:37;17.85;;;7.55;;
12383;SDS011;6256;63.808;20.336;2022-08-21T07:21:03;15.95;;;7.75;;
12383;SDS011;6256;63.808;20.336;2022-08-21T07:23:32;15.43;;;7.95;;
12383;SDS011;6256;63.808;20.336;2022-08-21T07:26:03;17.33;;;8.70;;
12383;SDS011;6256;63.808;20.336;2022-08-21T07:28:29;12.07;;;6.65;;
12383;SDS011;6256;63.808;20.336;2022-08-21T07:30:56;12.45;;;7.32;;
12383;SDS011;6256;63.808;20.336;2022-08-21T07:33:24;13.35;;;6.85;;
12383;SDS011;6256;63.808;20.336;2022-08-21T07:35:51;13.48;;;6.07;;
12383;SDS011;6256;63.808;20.336;2022-08-21T07:38:17;8.20;;;4.85;;
12383;SDS011;6256;63.808;20.336;2022-08-21T07:40:44;7.70;;;4.40;;
12383;SDS011;6256;63.808;20.336;2022-08-21T07:43:11;5.60;;;4.30;;
12383;SDS011;6256;63.808;20.336;2022-08-21T07:45:37;7.00;;;4.57;;
12383;SDS011;6256;63.808;20.336;2022-08-21T07:48:03;8.60;;;5.90;;
12383;SDS011;6256;63.808;20.336;2022-08-21T07:50:29;13.18;;;6.97;;
12383;SDS011;6256;63.808;20.336;2022-08-21T07:52:55;11.57;;;7.05;;
12383;SDS011;6256;63.808;20.336;2022-08-21T07:55:21;12.80;;;6.93;;
12383;SDS011;6256;63.808;20.336;2022-08-21T07:57:47;11.63;;;6.88;;
12383;SDS011;6256;63.808;20.336;2022-08-21T08:00:14;15.95;;;7.63;;
12383;SDS011;6256;63.808;20.336;2022-08-21T08:02:44;15.48;;;7.80;;
12383;SDS011;6256;63.808;20.336;2022-08-21T08:05:12;13.32;;;7.72;;
12383;SDS011;6256;63.808;20.336;2022-08-21T08:07:38;15.23;;;7.95;;
12383;SDS011;6256;63.808;20.336;2022-08-21T08:10:04;18.77;;;8.43;;
12383;SDS011;6256;63.808;20.336;2022-08-21T08:12:32;13.68;;;7.65;;
12383;SDS011;6256;63.808;20.336;2022-08-21T08:15:09;13.50;;;7.05;;
12383;SDS011;6256;63.808;20.336;2022-08-21T08:17:39;10.18;;;7.00;;
12383;SDS011;6256;63.808;20.336;2022-08-21T08:20:05;11.00;;;7.03;;
12383;SDS011;6256;63.808;20.336;2022-08-21T08:22:33;12.82;;;7.72;;
12383;SDS011;6256;63.808;20.336;2022-08-21T08:25:00;10.70;;;6.93;;
12383;SDS011;6256;63.808;20.336;2022-08-21T08:27:26;11.90;;;6.95;;
12383;SDS011;6256;63.808;20.336;2022-08-21T08:29:52;16.20;;;7.65;;
12383;SDS011;6256;63.808;20.336;2022-08-21T08:32:19;13.93;;;7.72;;
12383;SDS011;6256;63.808;20.336;2022-08-21T08:34:44;12.45;;;6.97;;
12383;SDS011;6256;63.808;20.336;2022-08-21T08:37:12;12.55;;;7.00;;
12383;SDS011;6256;63.808;20.336;2022-08-21T08:39:38;12.45;;;7.53;;
12383;SDS011;6256;63.808;20.336;2022-08-21T08:42:11;12.27;;;7.10;;
12383;SDS011;6256;63.808;20.336;2022-08-21T08:44:42;11.93;;;6.45;;
12383;SDS011;6256;63.808;20.336;2022-08-21T08:47:14;11.43;;;6.32;;
12383;SDS011;6256;63.808;20.336;2022-08-21T08:49:51;12.32;;;6.75;;
12383;SDS011;6256;63.808;20.336;2022-08-21T08:52:27;13.23;;;6.50;;
12383;SDS011;6256;63.808;20.336;2022-08-21T08:55:00;11.10;;;6.65;;
12383;SDS011;6256;63.808;20.336;2022-08-21T08:57:33;11.27;;;5.53;;
12383;SDS011;6256;63.808;20.336;2022-08-21T09:00:01;11.18;;;6.53;;
12383;SDS011;6256;63.808;20.336;2022-08-21T09:02:34;15.55;;;7.07;;
12383;SDS011;6256;63.808;20.336;2022-08-21T09:05:00;11.70;;;6.82;;
12383;SDS011;6256;63.808;20.336;2022-08-21T09:09:58;18.45;;;7.75;;
12383;SDS011;6256;63.808;20.336;2022-08-21T09:12:44;12.55;;;6.57;;
12383;SDS011;6256;63.808;20.336;2022-08-21T09:15:18;15.07;;;6.70;;
12383;SDS011;6256;63.808;20.336;2022-08-21T09:18:02;10.50;;;6.22;;
12383;SDS011;6256;63.808;20.336;2022-08-21T09:21:01;10.98;;;6.05;;
12383;SDS011;6256;63.808;20.336;2022-08-21T09:23:46;12.20;;;6.05;;
12383;SDS011;6256;63.808;20.336;2022-08-21T09:26:47;14.30;;;6.25;;
12383;SDS011;6256;63.808;20.336;2022-08-21T09:29:28;11.18;;;6.20;;
12383;SDS011;6256;63.808;20.336;2022-08-21T09:31:58;9.32;;;5.22;;
12383;SDS011;6256;63.808;20.336;2022-08-21T09:34:26;8.27;;;4.40;;
12383;SDS011;6256;63.808;20.336;2022-08-21T09:36:55;6.65;;;4.28;;
12383;SDS011;6256;63.808;20.336;2022-08-21T09:39:32;4.97;;;3.70;;
12383;SDS011;6256;63.808;20.336;2022-08-21T09:42:05;7.28;;;3.72;;
12383;SDS011;6256;63.808;20.336;2022-08-21T09:44:34;11.57;;;4.22;;
12383;SDS011;6256;63.808;20.336;2022-08-21T09:47:06;5.82;;;4.32;;
12383;SDS011;6256;63.808;20.336;2022-08-21T09:49:35;5.32;;;3.90;;
12383;SDS011;6256;63.808;20.336;2022-08-21T09:52:03;11.68;;;5.43;;
12383;SDS011;6256;63.808;20.336;2022-08-21T09:54:39;21.65;;;7.20;;
12383;SDS011;6256;63.808;20.336;2022-08-21T09:59:52;17.55;;;8.57;;
12383;SDS011;6256;63.808;20.336;2022-08-21T10:04:52;21.58;;;8.32;;
12383;SDS011;6256;63.808;20.336;2022-08-21T10:07:20;11.73;;;7.22;;
12383;SDS011;6256;63.808;20.336;2022-08-21T10:10:05;16.67;;;7.43;;
12383;SDS011;6256;63.808;20.336;2022-08-21T10:15:08;17.08;;;8.02;;
12383;SDS011;6256;63.808;20.336;2022-08-21T10:18:06;15.40;;;8.20;;
12383;SDS011;6256;63.808;20.336;2022-08-21T10:34:46;14.75;;;7.70;;
12383;SDS011;6256;63.808;20.336;2022-08-21T10:37:25;11.05;;;7.50;;
12383;SDS011;6256;63.808;20.336;2022-08-21T10:48:16;7.97;;;5.97;;
12383;SDS011;6256;63.808;20.336;2022-08-21T10:50:51;8.98;;;6.45;;
12383;SDS011;6256;63.808;20.336;2022-08-21T10:56:22;9.18;;;6.22;;
12383;SDS011;6256;63.808;20.336;2022-08-21T11:04:26;7.50;;;5.85;;
12383;SDS011;6256;63.808;20.336;2022-08-21T11:07:04;8.27;;;6.40;;
12383;SDS011;6256;63.808;20.336;2022-08-21T11:09:37;6.93;;;5.68;;
12383;SDS011;6256;63.808;20.336;2022-08-21T11:15:02;6.50;;;5.70;;
12383;SDS011;6256;63.808;20.336;2022-08-21T11:17:47;8.98;;;6.22;;
12383;SDS011;6256;63.808;20.336;2022-08-21T11:20:23;8.55;;;5.88;;
12383;SDS011;6256;63.808;20.336;2022-08-21T11:23:00;7.47;;;5.70;;
12383;SDS011;6256;63.808;20.336;2022-08-21T11:25:37;10.27;;;6.68;;
12383;SDS011;6256;63.808;20.336;2022-08-21T11:28:17;10.90;;;7.22;;
12383;SDS011;6256;63.808;20.336;2022-08-21T11:39:06;9.73;;;6.40;;
12383;SDS011;6256;63.808;20.336;2022-08-21T11:41:48;9.05;;;6.47;;
12383;SDS011;6256;63.808;20.336;2022-08-21T11:45:10;12.60;;;6.60;;
12383;SDS011;6256;63.808;20.336;2022-08-21T11:50:28;9.50;;;7.30;;
12383;SDS011;6256;63.808;20.336;2022-08-21T11:53:17;8.98;;;6.53;;
12383;SDS011;6256;63.808;20.336;2022-08-21T11:56:06;6.95;;;6.13;;
12383;SDS011;6256;63.808;20.336;2022-08-21T11:58:44;8.88;;;6.00;;
12383;SDS011;6256;63.808;20.336;2022-08-21T12:01:25;9.27;;;6.47;;
12383;SDS011;6256;63.808;20.336;2022-08-21T12:06:37;8.55;;;6.30;;
12383;SDS011;6256;63.808;20.336;2022-08-21T12:09:07;8.10;;;5.63;;
12383;SDS011;6256;63.808;20.336;2022-08-21T12:12:11;6.90;;;5.10;;
12383;SDS011;6256;63.808;20.336;2022-08-21T12:14:48;6.03;;;4.72;;
12383;SDS011;6256;63.808;20.336;2022-08-21T12:17:21;7.57;;;5.47;;
12383;SDS011;6256;63.808;20.336;2022-08-21T12:19:58;6.68;;;4.75;;
12383;SDS011;6256;63.808;20.336;2022-08-21T12:22:47;5.85;;;4.38;;
12383;SDS011;6256;63.808;20.336;2022-08-21T12:25:18;5.18;;;4.20;;
12383;SDS011;6256;63.808;20.336;2022-08-21T12:30:33;5.30;;;3.75;;
12383;SDS011;6256;63.808;20.336;2022-08-21T12:33:01;5.53;;;4.18;;
12383;SDS011;6256;63.808;20.336;2022-08-21T12:35:36;7.18;;;3.92;;
12383;SDS011;6256;63.808;20.336;2022-08-21T12:38:09;5.90;;;4.00;;
12383;SDS011;6256;63.808;20.336;2022-08-21T12:46:06;6.68;;;3.90;;
12383;SDS011;6256;63.808;20.336;2022-08-21T12:48:41;5.07;;;3.78;;
12383;SDS011;6256;63.808;20.336;2022-08-21T12:51:26;5.85;;;3.67;;
12383;SDS011;6256;63.808;20.336;2022-08-21T12:53:57;4.30;;;3.42;;
12383;SDS011;6256;63.808;20.336;2022-08-21T12:56:25;5.82;;;3.60;;
12383;SDS011;6256;63.808;20.336;2022-08-21T12:58:57;5.68;;;3.50;;
12383;SDS011;6256;63.808;20.336;2022-08-21T13:01:33;6.07;;;3.70;;
12383;SDS011;6256;63.808;20.336;2022-08-21T13:04:02;6.00;;;3.47;;
12383;SDS011;6256;63.808;20.336;2022-08-21T13:06:38;6.18;;;3.47;;
12383;SDS011;6256;63.808;20.336;2022-08-21T13:09:07;5.28;;;4.20;;
12383;SDS011;6256;63.808;20.336;2022-08-21T13:11:39;4.85;;;3.20;;
12383;SDS011;6256;63.808;20.336;2022-08-21T13:14:17;3.92;;;3.08;;
12383;SDS011;6256;63.808;20.336;2022-08-21T13:16:54;5.43;;;3.10;;
12383;SDS011;6256;63.808;20.336;2022-08-21T13:19:21;3.30;;;2.85;;
12383;SDS011;6256;63.808;20.336;2022-08-21T13:21:48;4.90;;;2.80;;
12383;SDS011;6256;63.808;20.336;2022-08-21T13:24:16;5.05;;;2.90;;
12383;SDS011;6256;63.808;20.336;2022-08-21T13:26:43;4.00;;;2.97;;
12383;SDS011;6256;63.808;20.336;2022-08-21T13:29:10;8.50;;;3.03;;
12383;SDS011;6256;63.808;20.336;2022-08-21T13:31:39;5.32;;;2.55;;
12383;SDS011;6256;63.808;20.336;2022-08-21T13:34:08;3.95;;;2.67;;
12383;SDS011;6256;63.808;20.336;2022-08-21T13:36:36;2.47;;;2.28;;
12383;SDS011;6256;63.808;20.336;2022-08-21T13:39:09;6.03;;;2.70;;
12383;SDS011;6256;63.808;20.336;2022-08-21T13:41:38;3.50;;;2.70;;
12383;SDS011;6256;63.808;20.336;2022-08-21T13:46:47;3.70;;;2.70;;
12383;SDS011;6256;63.808;20.336;2022-08-21T13:49:15;3.30;;;2.47;;
12383;SDS011;6256;63.808;20.336;2022-08-21T13:51:42;5.18;;;2.55;;
12383;SDS011;6256;63.808;20.336;2022-08-21T13:54:14;4.25;;;2.60;;
12383;SDS011;6256;63.808;20.336;2022-08-21T13:56:42;3.25;;;2.33;;
12383;SDS011;6256;63.808;20.336;2022-08-21T13:59:22;2.40;;;2.20;;
12383;SDS011;6256;63.808;20.336;2022-08-21T14:04:31;3.25;;;2.38;;
12383;SDS011;6256;63.808;20.336;2022-08-21T14:07:01;4.03;;;2.40;;
12383;SDS011;6256;63.808;20.336;2022-08-21T14:09:32;4.53;;;2.33;;
12383;SDS011;6256;63.808;20.336;2022-08-21T14:12:03;4.68;;;2.30;;
12383;SDS011;6256;63.808;20.336;2022-08-21T14:15:02;4.03;;;2.67;;
12383;SDS011;6256;63.808;20.336;2022-08-21T14:17:34;2.92;;;2.13;;
12383;SDS011;6256;63.808;20.336;2022-08-21T14:20:06;4.28;;;2.50;;
12383;SDS011;6256;63.808;20.336;2022-08-21T14:25:11;3.75;;;2.53;;
12383;SDS011;6256;63.808;20.336;2022-08-21T14:32:53;3.17;;;2.38;;
12383;SDS011;6256;63.808;20.336;2022-08-21T14:35:19;4.13;;;2.42;;
12383;SDS011;6256;63.808;20.336;2022-08-21T14:37:46;5.40;;;2.58;;
12383;SDS011;6256;63.808;20.336;2022-08-21T14:40:15;3.67;;;2.28;;
12383;SDS011;6256;63.808;20.336;2022-08-21T14:42:42;4.47;;;2.80;;
12383;SDS011;6256;63.808;20.336;2022-08-21T14:47:40;6.03;;;2.70;;
12383;SDS011;6256;63.808;20.336;2022-08-21T14:50:07;5.82;;;2.40;;
12383;SDS011;6256;63.808;20.336;2022-08-21T14:52:34;6.28;;;2.63;;
12383;SDS011;6256;63.808;20.336;2022-08-21T14:55:00;4.88;;;2.58;;
12383;SDS011;6256;63.808;20.336;2022-08-21T14:57:26;5.47;;;2.35;;
12383;SDS011;6256;63.808;20.336;2022-08-21T14:59:55;6.55;;;2.60;;
12383;SDS011;6256;63.808;20.336;2022-08-21T15:02:21;6.93;;;2.53;;
12383;SDS011;6256;63.808;20.336;2022-08-21T15:04:46;5.22;;;2.72;;
12383;SDS011;6256;63.808;20.336;2022-08-21T15:07:12;5.40;;;2.30;;
12383;SDS011;6256;63.808;20.336;2022-08-21T15:09:38;3.38;;;2.10;;
12383;SDS011;6256;63.808;20.336;2022-08-21T15:12:04;4.75;;;2.33;;
12383;SDS011;6256;63.808;20.336;2022-08-21T15:14:32;5.50;;;2.60;;
12383;SDS011;6256;63.808;20.336;2022-08-21T15:17:00;5.35;;;2.72;;
12383;SDS011;6256;63.808;20.336;2022-08-21T15:19:28;9.25;;;2.40;;
12383;SDS011;6256;63.808;20.336;2022-08-21T15:21:55;3.90;;;2.60;;
12383;SDS011;6256;63.808;20.336;2022-08-21T15:24:21;5.85;;;2.22;;
12383;SDS011;6256;63.808;20.336;2022-08-21T15:26:47;3.88;;;2.25;;
12383;SDS011;6256;63.808;20.336;2022-08-21T15:29:13;7.80;;;2.90;;
12383;SDS011;6256;63.808;20.336;2022-08-21T15:31:55;3.97;;;2.47;;
12383;SDS011;6256;63.808;20.336;2022-08-21T15:34:23;4.10;;;2.80;;
12383;SDS011;6256;63.808;20.336;2022-08-21T15:36:52;8.38;;;3.67;;
12383;SDS011;6256;63.808;20.336;2022-08-21T15:39:18;12.13;;;3.40;;
12383;SDS011;6256;63.808;20.336;2022-08-21T15:41:44;7.18;;;3.10;;
12383;SDS011;6256;63.808;20.336;2022-08-21T15:44:11;8.18;;;3.30;;
12383;SDS011;6256;63.808;20.336;2022-08-21T15:46:38;3.90;;;2.70;;
12383;SDS011;6256;63.808;20.336;2022-08-21T15:49:05;4.70;;;2.88;;
12383;SDS011;6256;63.808;20.336;2022-08-21T15:51:33;6.88;;;3.00;;
12383;SDS011;6256;63.808;20.336;2022-08-21T15:53:58;5.63;;;2.80;;
12383;SDS011;6256;63.808;20.336;2022-08-21T15:56:26;3.60;;;2.63;;
12383;SDS011;6256;63.808;20.336;2022-08-21T15:58:57;9.05;;;3.40;;
12383;SDS011;6256;63.808;20.336;2022-08-21T16:01:25;4.53;;;2.72;;
12383;SDS011;6256;63.808;20.336;2022-08-21T16:03:52;8.35;;;3.35;;
12383;SDS011;6256;63.808;20.336;2022-08-21T16:06:18;4.70;;;2.92;;
12383;SDS011;6256;63.808;20.336;2022-08-21T16:08:44;5.88;;;3.35;;
12383;SDS011;6256;63.808;20.336;2022-08-21T16:11:11;5.07;;;2.95;;
12383;SDS011;6256;63.808;20.336;2022-08-21T16:13:40;5.05;;;2.65;;
12383;SDS011;6256;63.808;20.336;2022-08-21T16:16:09;4.82;;;2.67;;
12383;SDS011;6256;63.808;20.336;2022-08-21T16:18:37;6.13;;;2.65;;